sensor_id;sensor_type;location;lat;lon;timestamp;temperature;humidity
53711;DHT22;39605;52.704;6.752;2023-04-24T00:00:02;10.40;99.90
53711;DHT22;39605;52.704;6.752;2023-04-24T00:02:42;10.30;99.90
53711;DHT22;39605;52.704;6.752;2023-04-24T00:08:08;10.20;99.90
53711;DHT22;39605;52.704;6.752;2023-04-24T00:10:47;10.30;99.90
53711;DHT22;39605;52.704;6.752;2023-04-24T00:13:23;10.20;99.90
53711;DHT22;39605;52.704;6.752;2023-04-24T00:16:03;10.20;99.90
53711;DHT22;39605;52.704;6.752;2023-04-24T00:18:32;10.20;99.90
53711;DHT22;39605;52.704;6.752;2023-04-24T00:21:09;10.20;99.90
53711;DHT22;39605;52.704;6.752;2023-04-24T00:23:37;10.20;99.90
53711;DHT22;39605;52.704;6.752;2023-04-24T00:26:13;10.20;99.90
53711;DHT22;39605;52.704;6.752;2023-04-24T00:28:51;10.20;99.90
53711;DHT22;39605;52.704;6.752;2023-04-24T00:31:17;10.20;99.90
53711;DHT22;39605;52.704;6.752;2023-04-24T00:34:00;10.20;99.90
53711;DHT22;39605;52.704;6.752;2023-04-24T00:36:41;10.10;99.90
53711;DHT22;39605;52.704;6.752;2023-04-24T00:39:37;10.10;99.90
53711;DHT22;39605;52.704;6.752;2023-04-24T00:42:05;10.10;99.90
53711;DHT22;39605;52.704;6.752;2023-04-24T00:45:14;10.10;99.90
53711;DHT22;39605;52.704;6.752;2023-04-24T00:47:55;10.10;99.90
53711;DHT22;39605;52.704;6.752;2023-04-24T00:50:23;10.10;99.90
53711;DHT22;39605;52.704;6.752;2023-04-24T00:52:52;10.00;99.90
53711;DHT22;39605;52.704;6.752;2023-04-24T00:55:18;10.00;99.90
53711;DHT22;39605;52.704;6.752;2023-04-24T00:57:45;9.90;99.90
53711;DHT22;39605;52.704;6.752;2023-04-24T01:00:16;10.00;99.90
53711;DHT22;39605;52.704;6.752;2023-04-24T01:02:44;10.00;99.90
53711;DHT22;39605;52.704;6.752;2023-04-24T01:05:14;9.90;99.90
53711;DHT22;39605;52.704;6.752;2023-04-24T01:07:49;9.90;99.90
53711;DHT22;39605;52.704;6.752;2023-04-24T01:10:27;9.90;99.90
53711;DHT22;39605;52.704;6.752;2023-04-24T01:13:19;9.90;99.90
53711;DHT22;39605;52.704;6.752;2023-04-24T01:15:52;9.90;99.90
53711;DHT22;39605;52.704;6.752;2023-04-24T01:18:18;9.80;99.90
53711;DHT22;39605;52.704;6.752;2023-04-24T01:21:05;9.90;99.90
53711;DHT22;39605;52.704;6.752;2023-04-24T01:23:36;9.80;99.90
53711;DHT22;39605;52.704;6.752;2023-04-24T01:26:07;9.80;99.90
53711;DHT22;39605;52.704;6.752;2023-04-24T01:28:45;9.80;99.90
53711;DHT22;39605;52.704;6.752;2023-04-24T01:31:23;9.80;99.90
53711;DHT22;39605;52.704;6.752;2023-04-24T01:34:09;9.80;99.90
53711;DHT22;39605;52.704;6.752;2023-04-24T01:36:48;9.80;99.90
53711;DHT22;39605;52.704;6.752;2023-04-24T01:39:35;9.80;99.90
53711;DHT22;39605;52.704;6.752;2023-04-24T01:42:11;9.70;99.90
53711;DHT22;39605;52.704;6.752;2023-04-24T01:44:40;9.70;99.90
53711;DHT22;39605;52.704;6.752;2023-04-24T01:47:15;9.70;99.90
53711;DHT22;39605;52.704;6.752;2023-04-24T01:49:58;9.70;99.90
53711;DHT22;39605;52.704;6.752;2023-04-24T01:52:26;9.70;99.90
53711;DHT22;39605;52.704;6.752;2023-04-24T01:54:59;9.70;99.90
53711;DHT22;39605;52.704;6.752;2023-04-24T01:57:25;9.70;99.90
53711;DHT22;39605;52.704;6.752;2023-04-24T02:00:01;9.70;99.90
53711;DHT22;39605;52.704;6.752;2023-04-24T02:02:40;9.70;99.90
53711;DHT22;39605;52.704;6.752;2023-04-24T02:05:09;9.70;99.90
53711;DHT22;39605;52.704;6.752;2023-04-24T02:07:44;9.60;99.90
53711;DHT22;39605;52.704;6.752;2023-04-24T02:10:10;9.70;99.90
53711;DHT22;39605;52.704;6.752;2023-04-24T02:12:45;9.70;99.90
53711;DHT22;39605;52.704;6.752;2023-04-24T02:15:16;9.60;99.90
53711;DHT22;39605;52.704;6.752;2023-04-24T02:17:45;9.80;99.90
53711;DHT22;39605;52.704;6.752;2023-04-24T02:20:16;9.80;99.90
53711;DHT22;39605;52.704;6.752;2023-04-24T02:22:45;9.80;99.90
53711;DHT22;39605;52.704;6.752;2023-04-24T02:25:20;9.80;99.90
53711;DHT22;39605;52.704;6.752;2023-04-24T02:27:51;9.80;99.90
53711;DHT22;39605;52.704;6.752;2023-04-24T02:30:42;9.80;99.90
53711;DHT22;39605;52.704;6.752;2023-04-24T02:33:13;9.80;99.90
53711;DHT22;39605;52.704;6.752;2023-04-24T02:35:44;9.70;99.90
53711;DHT22;39605;52.704;6.752;2023-04-24T02:38:15;9.80;99.90
53711;DHT22;39605;52.704;6.752;2023-04-24T02:40:48;9.80;99.90
53711;DHT22;39605;52.704;6.752;2023-04-24T02:43:14;9.80;99.90
53711;DHT22;39605;52.704;6.752;2023-04-24T02:45:43;9.80;99.90
53711;DHT22;39605;52.704;6.752;2023-04-24T02:48:09;9.80;99.90
53711;DHT22;39605;52.704;6.752;2023-04-24T02:50:37;9.80;99.90
53711;DHT22;39605;52.704;6.752;2023-04-24T02:53:03;9.80;99.90
53711;DHT22;39605;52.704;6.752;2023-04-24T02:55:29;9.70;99.90
53711;DHT22;39605;52.704;6.752;2023-04-24T02:58:00;9.70;99.90
53711;DHT22;39605;52.704;6.752;2023-04-24T03:00:31;9.70;99.90
53711;DHT22;39605;52.704;6.752;2023-04-24T03:03:20;9.70;99.90
53711;DHT22;39605;52.704;6.752;2023-04-24T03:05:49;9.70;99.90
53711;DHT22;39605;52.704;6.752;2023-04-24T03:08:16;9.70;99.90
53711;DHT22;39605;52.704;6.752;2023-04-24T03:10:50;9.70;99.90
53711;DHT22;39605;52.704;6.752;2023-04-24T03:13:18;9.70;99.90
53711;DHT22;39605;52.704;6.752;2023-04-24T03:15:44;9.70;99.90
53711;DHT22;39605;52.704;6.752;2023-04-24T03:18:10;9.70;99.90
53711;DHT22;39605;52.704;6.752;2023-04-24T03:20:44;9.70;99.90
53711;DHT22;39605;52.704;6.752;2023-04-24T03:23:16;9.60;99.90
53711;DHT22;39605;52.704;6.752;2023-04-24T03:25:45;9.60;99.90
53711;DHT22;39605;52.704;6.752;2023-04-24T03:28:13;9.60;99.90
53711;DHT22;39605;52.704;6.752;2023-04-24T03:30:59;9.60;99.90
53711;DHT22;39605;52.704;6.752;2023-04-24T03:33:38;9.50;99.90
53711;DHT22;39605;52.704;6.752;2023-04-24T03:36:09;9.60;99.90
53711;DHT22;39605;52.704;6.752;2023-04-24T03:38:35;9.50;99.90
53711;DHT22;39605;52.704;6.752;2023-04-24T03:41:06;9.50;99.90
53711;DHT22;39605;52.704;6.752;2023-04-24T03:43:45;9.50;99.90
53711;DHT22;39605;52.704;6.752;2023-04-24T03:46:13;9.90;99.90
53711;DHT22;39605;52.704;6.752;2023-04-24T03:48:48;9.50;99.90
53711;DHT22;39605;52.704;6.752;2023-04-24T03:51:18;9.50;99.90
53711;DHT22;39605;52.704;6.752;2023-04-24T03:53:50;9.50;99.90
53711;DHT22;39605;52.704;6.752;2023-04-24T03:56:19;9.40;99.90
53711;DHT22;39605;52.704;6.752;2023-04-24T03:58:49;9.50;99.90
53711;DHT22;39605;52.704;6.752;2023-04-24T04:01:18;9.50;99.90
53711;DHT22;39605;52.704;6.752;2023-04-24T04:03:48;9.50;99.90
53711;DHT22;39605;52.704;6.752;2023-04-24T04:06:16;9.50;99.90
53711;DHT22;39605;52.704;6.752;2023-04-24T04:08:52;9.50;99.90
53711;DHT22;39605;52.704;6.752;2023-04-24T04:11:20;9.50;99.90
53711;DHT22;39605;52.704;6.752;2023-04-24T04:13:45;9.50;99.90
53711;DHT22;39605;52.704;6.752;2023-04-24T04:16:16;9.50;99.90
53711;DHT22;39605;52.704;6.752;2023-04-24T04:18:47;9.50;99.90
53711;DHT22;39605;52.704;6.752;2023-04-24T04:21:15;9.50;99.90
53711;DHT22;39605;52.704;6.752;2023-04-24T04:23:41;9.40;99.90
53711;DHT22;39605;52.704;6.752;2023-04-24T04:26:11;9.50;99.90
53711;DHT22;39605;52.704;6.752;2023-04-24T04:28:38;9.40;99.90
53711;DHT22;39605;52.704;6.752;2023-04-24T04:31:07;9.40;99.90
53711;DHT22;39605;52.704;6.752;2023-04-24T04:33:37;9.40;99.90
53711;DHT22;39605;52.704;6.752;2023-04-24T04:36:06;9.50;99.90
53711;DHT22;39605;52.704;6.752;2023-04-24T04:38:43;9.40;99.90
53711;DHT22;39605;52.704;6.752;2023-04-24T04:41:10;9.40;99.90
53711;DHT22;39605;52.704;6.752;2023-04-24T04:43:38;9.40;99.90
53711;DHT22;39605;52.704;6.752;2023-04-24T04:46:06;9.50;99.90
53711;DHT22;39605;52.704;6.752;2023-04-24T04:48:37;9.40;99.90
53711;DHT22;39605;52.704;6.752;2023-04-24T04:51:03;9.40;99.90
53711;DHT22;39605;52.704;6.752;2023-04-24T04:53:43;9.40;99.90
53711;DHT22;39605;52.704;6.752;2023-04-24T04:56:27;9.40;99.90
53711;DHT22;39605;52.704;6.752;2023-04-24T04:58:56;9.40;99.90
53711;DHT22;39605;52.704;6.752;2023-04-24T05:01:36;9.40;99.90
53711;DHT22;39605;52.704;6.752;2023-04-24T05:04:05;9.40;99.90
53711;DHT22;39605;52.704;6.752;2023-04-24T05:06:37;9.40;99.90
53711;DHT22;39605;52.704;6.752;2023-04-24T05:09:03;9.40;99.90
53711;DHT22;39605;52.704;6.752;2023-04-24T05:11:33;9.40;99.90
53711;DHT22;39605;52.704;6.752;2023-04-24T05:14:04;9.40;99.90
53711;DHT22;39605;52.704;6.752;2023-04-24T05:16:35;9.40;99.90
53711;DHT22;39605;52.704;6.752;2023-04-24T05:19:15;9.40;99.90
53711;DHT22;39605;52.704;6.752;2023-04-24T05:22:11;9.40;99.90
53711;DHT22;39605;52.704;6.752;2023-04-24T05:24:53;9.40;99.90
53711;DHT22;39605;52.704;6.752;2023-04-24T05:27:21;9.40;99.90
53711;DHT22;39605;52.704;6.752;2023-04-24T05:29:53;9.40;99.90
53711;DHT22;39605;52.704;6.752;2023-04-24T05:32:19;9.40;99.90
53711;DHT22;39605;52.704;6.752;2023-04-24T05:34:56;9.40;99.90
53711;DHT22;39605;52.704;6.752;2023-04-24T05:37:32;9.40;99.90
53711;DHT22;39605;52.704;6.752;2023-04-24T05:39:58;9.40;99.90
53711;DHT22;39605;52.704;6.752;2023-04-24T05:42:31;9.40;99.90
53711;DHT22;39605;52.704;6.752;2023-04-24T05:45:07;9.40;99.90
53711;DHT22;39605;52.704;6.752;2023-04-24T05:48:03;9.40;99.90
53711;DHT22;39605;52.704;6.752;2023-04-24T05:50:55;9.40;99.90
53711;DHT22;39605;52.704;6.752;2023-04-24T05:53:34;9.40;99.90
53711;DHT22;39605;52.704;6.752;2023-04-24T05:56:08;9.40;99.90
53711;DHT22;39605;52.704;6.752;2023-04-24T05:58:46;9.30;99.90
53711;DHT22;39605;52.704;6.752;2023-04-24T06:01:20;9.30;99.90
53711;DHT22;39605;52.704;6.752;2023-04-24T06:03:48;9.40;99.90
53711;DHT22;39605;52.704;6.752;2023-04-24T06:06:17;9.30;99.90
53711;DHT22;39605;52.704;6.752;2023-04-24T06:08:47;9.40;99.90
53711;DHT22;39605;52.704;6.752;2023-04-24T06:11:13;9.30;99.90
53711;DHT22;39605;52.704;6.752;2023-04-24T06:13:48;9.30;99.90
53711;DHT22;39605;52.704;6.752;2023-04-24T06:16:14;9.30;99.90
53711;DHT22;39605;52.704;6.752;2023-04-24T06:18:39;9.30;99.90
53711;DHT22;39605;52.704;6.752;2023-04-24T06:21:05;9.20;99.90
53711;DHT22;39605;52.704;6.752;2023-04-24T06:23:31;9.20;99.90
53711;DHT22;39605;52.704;6.752;2023-04-24T06:25:58;9.20;99.90
53711;DHT22;39605;52.704;6.752;2023-04-24T06:28:24;9.20;99.90
53711;DHT22;39605;52.704;6.752;2023-04-24T06:30:50;9.20;99.90
53711;DHT22;39605;52.704;6.752;2023-04-24T06:33:16;9.20;99.90
53711;DHT22;39605;52.704;6.752;2023-04-24T06:35:41;9.20;99.90
53711;DHT22;39605;52.704;6.752;2023-04-24T06:38:07;9.20;99.90
53711;DHT22;39605;52.704;6.752;2023-04-24T06:40:33;9.20;99.90
53711;DHT22;39605;52.704;6.752;2023-04-24T06:42:59;9.30;99.90
53711;DHT22;39605;52.704;6.752;2023-04-24T06:45:25;9.30;99.90
53711;DHT22;39605;52.704;6.752;2023-04-24T06:47:52;9.30;99.90
53711;DHT22;39605;52.704;6.752;2023-04-24T06:50:18;9.30;99.90
53711;DHT22;39605;52.704;6.752;2023-04-24T06:52:43;9.20;99.90
53711;DHT22;39605;52.704;6.752;2023-04-24T06:55:09;9.20;99.90
53711;DHT22;39605;52.704;6.752;2023-04-24T06:57:36;9.20;99.90
53711;DHT22;39605;52.704;6.752;2023-04-24T07:00:03;9.20;99.90
53711;DHT22;39605;52.704;6.752;2023-04-24T07:02:30;9.20;99.90
53711;DHT22;39605;52.704;6.752;2023-04-24T07:04:56;9.20;99.90
53711;DHT22;39605;52.704;6.752;2023-04-24T07:07:22;9.20;99.90
53711;DHT22;39605;52.704;6.752;2023-04-24T07:09:49;9.20;99.90
53711;DHT22;39605;52.704;6.752;2023-04-24T07:12:16;9.20;99.90
53711;DHT22;39605;52.704;6.752;2023-04-24T07:14:42;9.20;99.90
53711;DHT22;39605;52.704;6.752;2023-04-24T07:17:08;9.20;99.90
53711;DHT22;39605;52.704;6.752;2023-04-24T07:19:34;9.20;99.90
53711;DHT22;39605;52.704;6.752;2023-04-24T07:22:01;9.20;99.90
53711;DHT22;39605;52.704;6.752;2023-04-24T07:24:27;9.20;99.90
53711;DHT22;39605;52.704;6.752;2023-04-24T07:26:54;9.20;99.90
53711;DHT22;39605;52.704;6.752;2023-04-24T07:29:19;9.20;99.90
53711;DHT22;39605;52.704;6.752;2023-04-24T07:31:46;9.20;99.90
53711;DHT22;39605;52.704;6.752;2023-04-24T07:34:12;9.20;99.90
53711;DHT22;39605;52.704;6.752;2023-04-24T07:36:38;9.20;99.90
53711;DHT22;39605;52.704;6.752;2023-04-24T07:39:04;9.30;99.90
53711;DHT22;39605;52.704;6.752;2023-04-24T07:41:31;9.40;99.90
53711;DHT22;39605;52.704;6.752;2023-04-24T07:43:57;9.50;99.90
53711;DHT22;39605;52.704;6.752;2023-04-24T07:46:23;9.50;99.90
53711;DHT22;39605;52.704;6.752;2023-04-24T07:48:50;9.60;99.90
53711;DHT22;39605;52.704;6.752;2023-04-24T07:51:16;9.60;99.90
53711;DHT22;39605;52.704;6.752;2023-04-24T07:53:43;9.70;99.90
53711;DHT22;39605;52.704;6.752;2023-04-24T07:56:09;9.70;99.90
53711;DHT22;39605;52.704;6.752;2023-04-24T07:58:35;9.70;99.90
53711;DHT22;39605;52.704;6.752;2023-04-24T08:01:01;9.80;99.90
53711;DHT22;39605;52.704;6.752;2023-04-24T08:03:26;9.80;99.90
53711;DHT22;39605;52.704;6.752;2023-04-24T08:05:52;9.80;99.90
53711;DHT22;39605;52.704;6.752;2023-04-24T08:08:21;9.80;99.90
53711;DHT22;39605;52.704;6.752;2023-04-24T08:10:47;9.80;99.90
53711;DHT22;39605;52.704;6.752;2023-04-24T08:13:12;9.80;99.90
53711;DHT22;39605;52.704;6.752;2023-04-24T08:15:38;9.80;99.90
53711;DHT22;39605;52.704;6.752;2023-04-24T08:18:04;9.90;99.90
53711;DHT22;39605;52.704;6.752;2023-04-24T08:20:30;9.90;99.90
53711;DHT22;39605;52.704;6.752;2023-04-24T08:22:56;9.90;99.90
53711;DHT22;39605;52.704;6.752;2023-04-24T08:25:22;9.90;99.90
53711;DHT22;39605;52.704;6.752;2023-04-24T08:27:49;10.00;99.90
53711;DHT22;39605;52.704;6.752;2023-04-24T08:30:14;10.00;99.90
53711;DHT22;39605;52.704;6.752;2023-04-24T08:32:40;10.00;99.90
53711;DHT22;39605;52.704;6.752;2023-04-24T08:35:07;10.00;99.90
53711;DHT22;39605;52.704;6.752;2023-04-24T08:37:34;10.00;99.90
53711;DHT22;39605;52.704;6.752;2023-04-24T08:40:03;10.10;99.90
53711;DHT22;39605;52.704;6.752;2023-04-24T08:42:32;10.10;99.90
53711;DHT22;39605;52.704;6.752;2023-04-24T08:44:58;10.10;99.90
53711;DHT22;39605;52.704;6.752;2023-04-24T08:47:25;10.10;99.90
53711;DHT22;39605;52.704;6.752;2023-04-24T08:49:52;10.10;99.90
53711;DHT22;39605;52.704;6.752;2023-04-24T08:52:19;10.10;99.90
53711;DHT22;39605;52.704;6.752;2023-04-24T08:54:47;10.10;99.90
53711;DHT22;39605;52.704;6.752;2023-04-24T08:57:14;10.10;99.90
53711;DHT22;39605;52.704;6.752;2023-04-24T08:59:41;10.10;99.90
53711;DHT22;39605;52.704;6.752;2023-04-24T09:02:10;10.00;99.90
53711;DHT22;39605;52.704;6.752;2023-04-24T09:04:37;10.00;99.90
53711;DHT22;39605;52.704;6.752;2023-04-24T09:07:03;10.00;99.90
53711;DHT22;39605;52.704;6.752;2023-04-24T09:09:32;9.90;99.90
53711;DHT22;39605;52.704;6.752;2023-04-24T09:11:58;9.90;99.90
53711;DHT22;39605;52.704;6.752;2023-04-24T09:14:26;9.90;99.90
53711;DHT22;39605;52.704;6.752;2023-04-24T09:16:53;9.80;99.90
53711;DHT22;39605;52.704;6.752;2023-04-24T09:19:19;9.90;99.90
53711;DHT22;39605;52.704;6.752;2023-04-24T09:21:47;9.90;99.90
53711;DHT22;39605;52.704;6.752;2023-04-24T09:24:18;9.80;99.90
53711;DHT22;39605;52.704;6.752;2023-04-24T09:26:46;9.80;99.90
53711;DHT22;39605;52.704;6.752;2023-04-24T09:29:18;9.80;99.90
53711;DHT22;39605;52.704;6.752;2023-04-24T09:31:47;9.70;99.90
53711;DHT22;39605;52.704;6.752;2023-04-24T09:34:12;9.70;99.90
53711;DHT22;39605;52.704;6.752;2023-04-24T09:36:41;9.70;99.90
53711;DHT22;39605;52.704;6.752;2023-04-24T09:39:14;9.70;99.90
53711;DHT22;39605;52.704;6.752;2023-04-24T09:41:46;9.70;99.90
53711;DHT22;39605;52.704;6.752;2023-04-24T09:44:14;9.70;99.90
53711;DHT22;39605;52.704;6.752;2023-04-24T09:46:44;9.60;99.90
53711;DHT22;39605;52.704;6.752;2023-04-24T09:49:13;9.60;99.90
53711;DHT22;39605;52.704;6.752;2023-04-24T09:51:40;9.60;99.90
53711;DHT22;39605;52.704;6.752;2023-04-24T09:54:19;9.60;99.90
53711;DHT22;39605;52.704;6.752;2023-04-24T09:56:49;9.60;99.90
53711;DHT22;39605;52.704;6.752;2023-04-24T09:59:19;9.60;99.90
53711;DHT22;39605;52.704;6.752;2023-04-24T10:01:45;9.60;99.90
53711;DHT22;39605;52.704;6.752;2023-04-24T10:04:22;9.60;99.90
53711;DHT22;39605;52.704;6.752;2023-04-24T10:06:50;9.60;99.90
53711;DHT22;39605;52.704;6.752;2023-04-24T10:09:18;9.60;99.90
53711;DHT22;39605;52.704;6.752;2023-04-24T10:11:48;9.60;99.90
53711;DHT22;39605;52.704;6.752;2023-04-24T10:14:17;9.50;99.90
53711;DHT22;39605;52.704;6.752;2023-04-24T10:16:43;9.60;99.90
53711;DHT22;39605;52.704;6.752;2023-04-24T10:19:10;9.60;99.90
53711;DHT22;39605;52.704;6.752;2023-04-24T10:21:36;9.60;99.90
53711;DHT22;39605;52.704;6.752;2023-04-24T10:24:08;9.60;99.90
53711;DHT22;39605;52.704;6.752;2023-04-24T10:26:38;9.70;99.90
53711;DHT22;39605;52.704;6.752;2023-04-24T10:29:06;9.70;99.90
53711;DHT22;39605;52.704;6.752;2023-04-24T10:31:36;9.80;99.90
53711;DHT22;39605;52.704;6.752;2023-04-24T10:34:06;9.90;99.90
53711;DHT22;39605;52.704;6.752;2023-04-24T10:36:36;9.90;99.90
53711;DHT22;39605;52.704;6.752;2023-04-24T10:39:08;9.90;99.90
53711;DHT22;39605;52.704;6.752;2023-04-24T10:41:37;9.90;99.90
53711;DHT22;39605;52.704;6.752;2023-04-24T10:44:11;9.80;99.90
53711;DHT22;39605;52.704;6.752;2023-04-24T10:46:38;9.70;99.90
53711;DHT22;39605;52.704;6.752;2023-04-24T10:49:08;9.60;99.90
53711;DHT22;39605;52.704;6.752;2023-04-24T10:51:50;9.50;99.90
53711;DHT22;39605;52.704;6.752;2023-04-24T10:54:36;9.40;99.90
53711;DHT22;39605;52.704;6.752;2023-04-24T10:59:48;9.20;99.90
53711;DHT22;39605;52.704;6.752;2023-04-24T11:02:14;9.10;99.90
53711;DHT22;39605;52.704;6.752;2023-04-24T11:04:41;9.10;99.90
53711;DHT22;39605;52.704;6.752;2023-04-24T11:07:11;9.00;99.90
53711;DHT22;39605;52.704;6.752;2023-04-24T11:09:37;9.10;99.90
53711;DHT22;39605;52.704;6.752;2023-04-24T11:12:10;9.10;99.90
53711;DHT22;39605;52.704;6.752;2023-04-24T11:14:59;9.20;99.90
53711;DHT22;39605;52.704;6.752;2023-04-24T11:17:36;9.20;99.90
53711;DHT22;39605;52.704;6.752;2023-04-24T11:20:11;9.30;99.90
53711;DHT22;39605;52.704;6.752;2023-04-24T11:22:40;9.40;99.90
53711;DHT22;39605;52.704;6.752;2023-04-24T11:25:06;9.50;99.90
53711;DHT22;39605;52.704;6.752;2023-04-24T11:27:40;9.50;99.90
53711;DHT22;39605;52.704;6.752;2023-04-24T11:30:06;9.60;99.90
53711;DHT22;39605;52.704;6.752;2023-04-24T11:35:22;9.80;99.90
53711;DHT22;39605;52.704;6.752;2023-04-24T11:37:53;9.80;99.90
53711;DHT22;39605;52.704;6.752;2023-04-24T11:40:21;9.90;99.90
53711;DHT22;39605;52.704;6.752;2023-04-24T11:42:51;9.90;99.90
53711;DHT22;39605;52.704;6.752;2023-04-24T11:45:23;9.90;99.90
53711;DHT22;39605;52.704;6.752;2023-04-24T11:47:49;9.80;99.90
53711;DHT22;39605;52.704;6.752;2023-04-24T11:50:17;9.80;99.90
53711;DHT22;39605;52.704;6.752;2023-04-24T11:52:49;9.70;99.90
53711;DHT22;39605;52.704;6.752;2023-04-24T11:57:45;9.60;99.90
53711;DHT22;39605;52.704;6.752;2023-04-24T12:00:19;9.60;99.90
53711;DHT22;39605;52.704;6.752;2023-04-24T12:02:48;9.60;99.90
53711;DHT22;39605;52.704;6.752;2023-04-24T12:05:23;9.60;99.90
53711;DHT22;39605;52.704;6.752;2023-04-24T12:07:57;9.60;99.90
53711;DHT22;39605;52.704;6.752;2023-04-24T12:10:27;9.70;99.90
53711;DHT22;39605;52.704;6.752;2023-04-24T12:12:59;9.80;99.90
53711;DHT22;39605;52.704;6.752;2023-04-24T12:15:26;9.90;99.90
53711;DHT22;39605;52.704;6.752;2023-04-24T12:17:53;10.00;99.90
53711;DHT22;39605;52.704;6.752;2023-04-24T12:20:28;10.00;99.90
53711;DHT22;39605;52.704;6.752;2023-04-24T12:22:56;9.90;99.90
53711;DHT22;39605;52.704;6.752;2023-04-24T12:25:30;10.00;99.90
53711;DHT22;39605;52.704;6.752;2023-04-24T12:30:39;9.90;99.90
53711;DHT22;39605;52.704;6.752;2023-04-24T12:33:05;10.00;99.90
53711;DHT22;39605;52.704;6.752;2023-04-24T12:35:34;10.00;99.90
53711;DHT22;39605;52.704;6.752;2023-04-24T12:38:07;10.00;99.90
53711;DHT22;39605;52.704;6.752;2023-04-24T12:40:37;10.10;99.90
53711;DHT22;39605;52.704;6.752;2023-04-24T12:43:16;10.10;99.90
53711;DHT22;39605;52.704;6.752;2023-04-24T12:45:45;10.00;99.80
53711;DHT22;39605;52.704;6.752;2023-04-24T12:48:17;9.90;99.90
53711;DHT22;39605;52.704;6.752;2023-04-24T12:50:43;10.00;99.90
53711;DHT22;39605;52.704;6.752;2023-04-24T12:53:09;10.00;99.90
53711;DHT22;39605;52.704;6.752;2023-04-24T12:55:38;10.00;99.90
53711;DHT22;39605;52.704;6.752;2023-04-24T12:58:06;9.90;99.90
53711;DHT22;39605;52.704;6.752;2023-04-24T13:00:32;9.80;99.90
53711;DHT22;39605;52.704;6.752;2023-04-24T13:02:58;9.80;99.90
53711;DHT22;39605;52.704;6.752;2023-04-24T13:05:24;9.80;99.90
53711;DHT22;39605;52.704;6.752;2023-04-24T13:07:50;9.80;99.90
53711;DHT22;39605;52.704;6.752;2023-04-24T13:10:16;9.90;99.90
53711;DHT22;39605;52.704;6.752;2023-04-24T13:12:49;10.00;99.90
53711;DHT22;39605;52.704;6.752;2023-04-24T13:15:15;10.10;99.30
53711;DHT22;39605;52.704;6.752;2023-04-24T13:17:46;10.10;98.60
53711;DHT22;39605;52.704;6.752;2023-04-24T13:20:11;10.10;98.30
53711;DHT22;39605;52.704;6.752;2023-04-24T13:22:37;10.10;98.70
53711;DHT22;39605;52.704;6.752;2023-04-24T13:25:03;10.10;98.30
53711;DHT22;39605;52.704;6.752;2023-04-24T13:27:31;10.10;98.40
53711;DHT22;39605;52.704;6.752;2023-04-24T13:29:57;10.10;98.70
53711;DHT22;39605;52.704;6.752;2023-04-24T13:32:26;10.00;99.00
53711;DHT22;39605;52.704;6.752;2023-04-24T13:34:53;9.90;98.90
53711;DHT22;39605;52.704;6.752;2023-04-24T13:37:24;9.90;99.30
53711;DHT22;39605;52.704;6.752;2023-04-24T13:39:50;9.80;99.40
53711;DHT22;39605;52.704;6.752;2023-04-24T13:42:18;9.70;99.90
53711;DHT22;39605;52.704;6.752;2023-04-24T13:44:47;9.70;99.90
53711;DHT22;39605;52.704;6.752;2023-04-24T13:47:20;9.70;99.90
53711;DHT22;39605;52.704;6.752;2023-04-24T13:49:48;9.70;99.90
53711;DHT22;39605;52.704;6.752;2023-04-24T13:52:15;9.70;99.90
53711;DHT22;39605;52.704;6.752;2023-04-24T13:54:41;9.60;99.90
53711;DHT22;39605;52.704;6.752;2023-04-24T13:57:14;9.60;99.90
53711;DHT22;39605;52.704;6.752;2023-04-24T13:59:43;9.60;99.90
53711;DHT22;39605;52.704;6.752;2023-04-24T14:02:20;9.60;99.90
53711;DHT22;39605;52.704;6.752;2023-04-24T14:04:53;9.70;99.90
53711;DHT22;39605;52.704;6.752;2023-04-24T14:07:21;9.80;99.80
53711;DHT22;39605;52.704;6.752;2023-04-24T14:09:47;9.70;99.90
53711;DHT22;39605;52.704;6.752;2023-04-24T14:12:13;9.80;99.10
53711;DHT22;39605;52.704;6.752;2023-04-24T14:14:49;9.80;99.00
53711;DHT22;39605;52.704;6.752;2023-04-24T14:17:20;9.80;98.50
53711;DHT22;39605;52.704;6.752;2023-04-24T14:19:49;9.70;99.40
53711;DHT22;39605;52.704;6.752;2023-04-24T14:22:26;9.70;99.90
53711;DHT22;39605;52.704;6.752;2023-04-24T14:24:55;9.60;99.90
53711;DHT22;39605;52.704;6.752;2023-04-24T14:27:21;9.60;99.90
53711;DHT22;39605;52.704;6.752;2023-04-24T14:29:53;9.50;99.90
53711;DHT22;39605;52.704;6.752;2023-04-24T14:32:24;9.50;99.90
53711;DHT22;39605;52.704;6.752;2023-04-24T14:34:50;9.40;99.90
53711;DHT22;39605;52.704;6.752;2023-04-24T14:37:24;9.50;99.90
53711;DHT22;39605;52.704;6.752;2023-04-24T14:39:52;9.40;99.90
53711;DHT22;39605;52.704;6.752;2023-04-24T14:42:27;9.50;99.90
53711;DHT22;39605;52.704;6.752;2023-04-24T14:44:54;9.50;99.90
53711;DHT22;39605;52.704;6.752;2023-04-24T14:47:26;9.60;99.90
53711;DHT22;39605;52.704;6.752;2023-04-24T14:49:54;9.50;99.90
53711;DHT22;39605;52.704;6.752;2023-04-24T14:52:20;9.50;99.90
53711;DHT22;39605;52.704;6.752;2023-04-24T14:54:55;9.50;99.90
53711;DHT22;39605;52.704;6.752;2023-04-24T14:57:25;9.50;99.90
53711;DHT22;39605;52.704;6.752;2023-04-24T14:59:54;9.60;99.90
53711;DHT22;39605;52.704;6.752;2023-04-24T15:02:19;9.70;99.90
53711;DHT22;39605;52.704;6.752;2023-04-24T15:04:47;9.80;99.90
53711;DHT22;39605;52.704;6.752;2023-04-24T15:07:16;9.90;99.90
53711;DHT22;39605;52.704;6.752;2023-04-24T15:09:41;9.90;99.90
53711;DHT22;39605;52.704;6.752;2023-04-24T15:12:08;10.00;99.90
53711;DHT22;39605;52.704;6.752;2023-04-24T15:14:38;10.10;99.90
53711;DHT22;39605;52.704;6.752;2023-04-24T15:17:03;10.00;99.00
53711;DHT22;39605;52.704;6.752;2023-04-24T15:19:29;10.00;99.20
53711;DHT22;39605;52.704;6.752;2023-04-24T15:22:00;9.90;99.60
53711;DHT22;39605;52.704;6.752;2023-04-24T15:24:26;9.80;99.80
53711;DHT22;39605;52.704;6.752;2023-04-24T15:26:59;9.80;99.90
53711;DHT22;39605;52.704;6.752;2023-04-24T15:29:36;9.70;99.90
53711;DHT22;39605;52.704;6.752;2023-04-24T15:32:09;9.70;99.90
53711;DHT22;39605;52.704;6.752;2023-04-24T15:34:35;9.80;99.90
53711;DHT22;39605;52.704;6.752;2023-04-24T15:37:03;9.90;99.90
53711;DHT22;39605;52.704;6.752;2023-04-24T15:39:34;9.90;99.90
53711;DHT22;39605;52.704;6.752;2023-04-24T15:42:02;9.90;99.90
53711;DHT22;39605;52.704;6.752;2023-04-24T15:44:37;9.90;99.90
53711;DHT22;39605;52.704;6.752;2023-04-24T15:47:03;9.90;99.90
53711;DHT22;39605;52.704;6.752;2023-04-24T15:49:30;9.80;99.90
53711;DHT22;39605;52.704;6.752;2023-04-24T15:51:59;9.80;99.90
53711;DHT22;39605;52.704;6.752;2023-04-24T15:54:52;9.80;99.90
53711;DHT22;39605;52.704;6.752;2023-04-24T15:57:18;9.90;99.90
53711;DHT22;39605;52.704;6.752;2023-04-24T15:59:44;10.00;99.90
53711;DHT22;39605;52.704;6.752;2023-04-24T16:02:14;10.00;99.90
53711;DHT22;39605;52.704;6.752;2023-04-24T16:04:48;10.00;99.90
53711;DHT22;39605;52.704;6.752;2023-04-24T16:07:17;10.00;99.90
53711;DHT22;39605;52.704;6.752;2023-04-24T16:09:50;10.00;99.90
53711;DHT22;39605;52.704;6.752;2023-04-24T16:12:18;10.00;99.90
53711;DHT22;39605;52.704;6.752;2023-04-24T16:14:44;10.10;99.40